Aleksandr Zhitnik — EMBN — position and weather

sailwx.info

Track history (hours):
 
Tides and Currents Weather Stations Pressure Air Temp Water Temp Dewpoint Dewpoint Depression Visibility Wind Speed Wind Dir Waves Ship Positions

Aleksandr Zhitnik

Last reported at 2014-Nov-22 22:11 UTC. Time now 2014-Nov-26 10:03 UTC.
Position N 46°32' E 032°06'.

Length 85 m; draft 2.3 m.

Type: Cargo ship. MMSI: 272089600.

Date/timePositionNaut miles runAvg speedWind from/ knotsBaromVisibWave heightAir tempDewpointWater temp
2014-Nov-22 22:11N 46°32' E 032°06'2 1.2
2014-Nov-22 20:27N 46°30' E 032°05'0 0.4
2014-Nov-22 19:26N 46°30' E 032°04'0 0.0
2014-Nov-22 18:33N 46°30' E 032°04'0 0.0
2014-Nov-22 17:33N 46°30' E 032°04'0 0.0
2014-Nov-22 16:30N 46°30' E 032°04'0 0.0
2014-Nov-22 15:33N 46°30' E 032°04'0 0.0
2014-Nov-22 14:30N 46°30' E 032°04'0 0.0
2014-Nov-22 10:17N 46°30' E 032°04'2 2.3
2014-Nov-22 09:28N 46°31' E 032°05'  
2014-Nov-15 06:22N 46°33' E 032°26'0 0.0
2014-Nov-15 05:33N 46°33' E 032°26'0 0.0
2014-Nov-15 04:33N 46°33' E 032°26'0 0.0
2014-Nov-15 03:33N 46°33' E 032°26'0 0.0
2014-Nov-15 02:33N 46°33' E 032°26'0 0.0
2014-Nov-15 00:05N 46°33' E 032°26'0 0.0
2014-Nov-14 23:19N 46°33' E 032°26'0 0.0
2014-Nov-14 22:22N 46°33' E 032°26'0 0.0
2014-Nov-14 21:31N 46°33' E 032°26'0 0.0
2014-Nov-14 20:33N 46°33' E 032°26'0 0.0
2014-Nov-14 19:33N 46°33' E 032°26'0 0.0
2014-Nov-14 17:14N 46°33' E 032°26'15 3.2
2014-Nov-14 12:30N 46°30' E 032°04'0 0.0
2014-Nov-14 11:29N 46°30' E 032°04'0 0.0
2014-Nov-14 10:33N 46°30' E 032°04'0 0.0
2014-Nov-14 09:29N 46°30' E 032°04'0 0.0
2014-Nov-14 08:24N 46°30' E 032°04'0 0.0
2014-Nov-14 07:32N 46°30' E 032°04'0 0.0
2014-Nov-14 06:29N 46°30' E 032°04'0 0.0
2014-Nov-14 05:33N 46°30' E 032°04'2 1.8
2014-Nov-14 04:33N 46°31' E 032°04'0 0.0
2014-Nov-14 03:32N 46°31' E 032°04'0 0.0
2014-Nov-14 02:32N 46°31' E 032°04'0 0.0
2014-Nov-14 01:29N 46°31' E 032°04'0 0.0
2014-Nov-14 00:30N 46°31' E 032°04'0 0.0
2014-Nov-13 23:33N 46°31' E 032°04'0 0.0
2014-Nov-13 22:31N 46°31' E 032°04'0 0.0
2014-Nov-13 21:31N 46°31' E 032°04'1 0.7
2014-Nov-13 20:21N 46°32' E 032°03'5 6.0
2014-Nov-13 19:34N 46°34' E 031°57'7 6.2
2014-Nov-13 18:30N 46°36' E 031°48'7 5.8
2014-Nov-13 17:15N 46°35' E 031°37'37 5.4
2014-Nov-13 10:23N 46°31' E 030°44'0 0.0
2014-Nov-13 09:29N 46°31' E 030°44'0 0.0
2014-Nov-13 08:33N 46°31' E 030°44'0 0.0
2014-Nov-13 07:33N 46°31' E 030°44'0 0.0
2014-Nov-13 06:33N 46°31' E 030°44'0 0.0
2014-Nov-13 05:33N 46°31' E 030°44'0 0.0
2014-Nov-13 04:26N 46°31' E 030°44'0 0.0
2014-Nov-13 03:33N 46°31' E 030°44'0 0.0
2014-Nov-13 02:33N 46°31' E 030°44'0 0.0
2014-Nov-13 01:34N 46°31' E 030°44'0 0.0
2014-Nov-13 00:34N 46°31' E 030°44'0 0.0
2014-Nov-12 23:33N 46°31' E 030°44'0 0.0
2014-Nov-12 22:32N 46°31' E 030°44'  
Track history (hours):
 
Tides and Currents Weather Stations Pressure Air Temp Water Temp Dewpoint Dewpoint Depression Visibility Wind Speed Wind Dir Waves Ship Positions

Aleksandr Zhitnik

Last reported at 2014-Nov-22 22:11 UTC. Time now 2014-Nov-26 10:03 UTC.
Position N 46°32' E 032°06'.

Length 85 m; draft 2.3 m.

Type: Cargo ship. MMSI: 272089600.

Date/timePositionNaut miles runAvg speedWind from/ knotsBaromVisibWave heightAir tempDewpointWater temp
2014-Nov-22 22:11N 46°32' E 032°06'2 1.2
2014-Nov-22 20:27N 46°30' E 032°05'0 0.4
2014-Nov-22 19:26N 46°30' E 032°04'0 0.0
2014-Nov-22 18:33N 46°30' E 032°04'0 0.0
2014-Nov-22 17:33N 46°30' E 032°04'0 0.0
2014-Nov-22 16:30N 46°30' E 032°04'0 0.0
2014-Nov-22 15:33N 46°30' E 032°04'0 0.0
2014-Nov-22 14:30N 46°30' E 032°04'0 0.0
2014-Nov-22 10:17N 46°30' E 032°04'2 2.3
2014-Nov-22 09:28N 46°31' E 032°05'  
2014-Nov-15 06:22N 46°33' E 032°26'0 0.0
2014-Nov-15 05:33N 46°33' E 032°26'0 0.0
2014-Nov-15 04:33N 46°33' E 032°26'0 0.0
2014-Nov-15 03:33N 46°33' E 032°26'0 0.0
2014-Nov-15 02:33N 46°33' E 032°26'0 0.0
2014-Nov-15 00:05N 46°33' E 032°26'0 0.0
2014-Nov-14 23:19N 46°33' E 032°26'0 0.0
2014-Nov-14 22:22N 46°33' E 032°26'0 0.0
2014-Nov-14 21:31N 46°33' E 032°26'0 0.0
2014-Nov-14 20:33N 46°33' E 032°26'0 0.0
2014-Nov-14 19:33N 46°33' E 032°26'0 0.0
2014-Nov-14 17:14N 46°33' E 032°26'15 3.2
2014-Nov-14 12:30N 46°30' E 032°04'0 0.0
2014-Nov-14 11:29N 46°30' E 032°04'0 0.0
2014-Nov-14 10:33N 46°30' E 032°04'0 0.0
2014-Nov-14 09:29N 46°30' E 032°04'0 0.0
2014-Nov-14 08:24N 46°30' E 032°04'0 0.0
2014-Nov-14 07:32N 46°30' E 032°04'0 0.0
2014-Nov-14 06:29N 46°30' E 032°04'0 0.0
2014-Nov-14 05:33N 46°30' E 032°04'2 1.8
2014-Nov-14 04:33N 46°31' E 032°04'0 0.0
2014-Nov-14 03:32N 46°31' E 032°04'0 0.0
2014-Nov-14 02:32N 46°31' E 032°04'0 0.0
2014-Nov-14 01:29N 46°31' E 032°04'0 0.0
2014-Nov-14 00:30N 46°31' E 032°04'0 0.0
2014-Nov-13 23:33N 46°31' E 032°04'0 0.0
2014-Nov-13 22:31N 46°31' E 032°04'0 0.0
2014-Nov-13 21:31N 46°31' E 032°04'1 0.7
2014-Nov-13 20:21N 46°32' E 032°03'5 6.0
2014-Nov-13 19:34N 46°34' E 031°57'7 6.2
2014-Nov-13 18:30N 46°36' E 031°48'7 5.8
2014-Nov-13 17:15N 46°35' E 031°37'37 5.4
2014-Nov-13 10:23N 46°31' E 030°44'0 0.0
2014-Nov-13 09:29N 46°31' E 030°44'0 0.0
2014-Nov-13 08:33N 46°31' E 030°44'0 0.0
2014-Nov-13 07:33N 46°31' E 030°44'0 0.0
2014-Nov-13 06:33N 46°31' E 030°44'0 0.0
2014-Nov-13 05:33N 46°31' E 030°44'0 0.0
2014-Nov-13 04:26N 46°31' E 030°44'0 0.0
2014-Nov-13 03:33N 46°31' E 030°44'0 0.0
2014-Nov-13 02:33N 46°31' E 030°44'0 0.0
2014-Nov-13 01:34N 46°31' E 030°44'0 0.0
2014-Nov-13 00:34N 46°31' E 030°44'0 0.0
2014-Nov-12 23:33N 46°31' E 030°44'0 0.0
2014-Nov-12 22:32N 46°31' E 030°44'  

Dump ship's entire track history